sensor_id;sensor_type;location;lat;lon;timestamp;P1;durP1;ratioP1;P2;durP2;ratioP2
31974;SDS011;18500;43.618;1.474;2022-12-10T07:38:19;730.50;;;674.80;;
31974;SDS011;18500;43.618;1.474;2022-12-10T07:40:44;845.53;;;781.30;;
31974;SDS011;18500;43.618;1.474;2022-12-10T07:43:10;793.55;;;732.90;;
31974;SDS011;18500;43.618;1.474;2022-12-10T07:45:36;769.78;;;713.55;;
31974;SDS011;18500;43.618;1.474;2022-12-10T07:48:02;791.95;;;731.63;;
31974;SDS011;18500;43.618;1.474;2022-12-10T07:50:27;756.60;;;699.65;;
31974;SDS011;18500;43.618;1.474;2022-12-10T07:52:53;620.78;;;578.15;;
31974;SDS011;18500;43.618;1.474;2022-12-10T07:55:19;746.08;;;690.83;;
31974;SDS011;18500;43.618;1.474;2022-12-10T07:57:44;732.92;;;680.92;;
31974;SDS011;18500;43.618;1.474;2022-12-10T08:00:10;845.50;;;782.67;;
31974;SDS011;18500;43.618;1.474;2022-12-10T08:02:36;735.58;;;683.30;;
31974;SDS011;18500;43.618;1.474;2022-12-10T08:05:02;822.60;;;760.78;;
31974;SDS011;18500;43.618;1.474;2022-12-10T08:07:28;655.80;;;607.33;;
31974;SDS011;18500;43.618;1.474;2022-12-10T08:09:53;679.85;;;630.45;;
31974;SDS011;18500;43.618;1.474;2022-12-10T08:12:19;595.15;;;554.67;;
31974;SDS011;18500;43.618;1.474;2022-12-10T08:14:45;415.23;;;387.58;;
31974;SDS011;18500;43.618;1.474;2022-12-10T08:17:10;620.90;;;578.72;;
31974;SDS011;18500;43.618;1.474;2022-12-10T08:19:36;503.30;;;469.88;;
31974;SDS011;18500;43.618;1.474;2022-12-10T08:22:02;536.80;;;498.85;;
31974;SDS011;18500;43.618;1.474;2022-12-10T08:24:27;439.75;;;409.98;;
31974;SDS011;18500;43.618;1.474;2022-12-10T08:26:53;502.70;;;468.83;;
31974;SDS011;18500;43.618;1.474;2022-12-10T08:29:18;485.08;;;451.77;;
31974;SDS011;18500;43.618;1.474;2022-12-10T08:31:44;338.77;;;316.73;;
31974;SDS011;18500;43.618;1.474;2022-12-10T08:34:13;438.10;;;408.85;;
31974;SDS011;18500;43.618;1.474;2022-12-10T08:36:41;516.67;;;480.40;;
31974;SDS011;18500;43.618;1.474;2022-12-10T08:39:07;416.85;;;389.85;;
31974;SDS011;18500;43.618;1.474;2022-12-10T08:41:35;465.63;;;436.02;;
31974;SDS011;18500;43.618;1.474;2022-12-10T08:44:01;514.22;;;479.20;;
31974;SDS011;18500;43.618;1.474;2022-12-10T08:46:27;432.63;;;406.27;;
31974;SDS011;18500;43.618;1.474;2022-12-10T08:48:53;681.50;;;636.88;;
31974;SDS011;18500;43.618;1.474;2022-12-10T08:51:20;678.85;;;634.50;;
31974;SDS011;18500;43.618;1.474;2022-12-10T08:53:47;390.27;;;366.42;;
31974;SDS011;18500;43.618;1.474;2022-12-10T08:56:12;434.48;;;406.00;;
31974;SDS011;18500;43.618;1.474;2022-12-10T08:58:38;304.50;;;285.88;;
31974;SDS011;18500;43.618;1.474;2022-12-10T09:01:05;318.65;;;297.33;;
31974;SDS011;18500;43.618;1.474;2022-12-10T09:03:36;345.70;;;320.45;;
31974;SDS011;18500;43.618;1.474;2022-12-10T09:06:06;233.68;;;217.93;;
31974;SDS011;18500;43.618;1.474;2022-12-10T09:08:36;270.92;;;253.82;;
31974;SDS011;18500;43.618;1.474;2022-12-10T09:11:06;282.38;;;263.85;;
31974;SDS011;18500;43.618;1.474;2022-12-10T09:13:37;532.75;;;498.88;;
31974;SDS011;18500;43.618;1.474;2022-12-10T09:16:04;576.55;;;538.55;;
31974;SDS011;18500;43.618;1.474;2022-12-10T09:18:30;575.90;;;538.25;;
31974;SDS011;18500;43.618;1.474;2022-12-10T09:20:56;600.10;;;559.45;;
31974;SDS011;18500;43.618;1.474;2022-12-10T09:23:22;548.67;;;510.60;;
31974;SDS011;18500;43.618;1.474;2022-12-10T09:25:47;581.00;;;540.92;;
31974;SDS011;18500;43.618;1.474;2022-12-10T09:28:14;704.42;;;650.72;;
31974;SDS011;18500;43.618;1.474;2022-12-10T09:30:40;638.65;;;594.58;;
31974;SDS011;18500;43.618;1.474;2022-12-10T09:33:05;557.20;;;519.53;;
31974;SDS011;18500;43.618;1.474;2022-12-10T09:35:31;509.90;;;476.67;;
31974;SDS011;18500;43.618;1.474;2022-12-10T09:37:57;633.97;;;589.28;;
31974;SDS011;18500;43.618;1.474;2022-12-10T09:40:32;647.88;;;599.97;;
31974;SDS011;18500;43.618;1.474;2022-12-10T09:48:32;630.72;;;588.17;;
31974;SDS011;18500;43.618;1.474;2022-12-10T09:51:10;520.55;;;486.85;;
31974;SDS011;18500;43.618;1.474;2022-12-10T09:53:44;488.25;;;455.98;;
31974;SDS011;18500;43.618;1.474;2022-12-10T09:56:21;470.45;;;440.48;;
31974;SDS011;18500;43.618;1.474;2022-12-10T09:58:49;646.67;;;601.40;;
31974;SDS011;18500;43.618;1.474;2022-12-10T10:01:15;622.10;;;578.20;;
31974;SDS011;18500;43.618;1.474;2022-12-10T10:03:44;494.00;;;460.77;;
31974;SDS011;18500;43.618;1.474;2022-12-10T10:06:11;448.77;;;417.40;;
31974;SDS011;18500;43.618;1.474;2022-12-10T10:08:41;508.35;;;475.90;;
31974;SDS011;18500;43.618;1.474;2022-12-10T10:11:11;675.33;;;627.80;;
31974;SDS011;18500;43.618;1.474;2022-12-10T10:13:42;601.17;;;562.33;;
31974;SDS011;18500;43.618;1.474;2022-12-10T10:21:28;545.33;;;508.65;;
31974;SDS011;18500;43.618;1.474;2022-12-10T10:23:57;628.20;;;586.00;;
31974;SDS011;18500;43.618;1.474;2022-12-10T10:26:25;722.45;;;671.63;;
31974;SDS011;18500;43.618;1.474;2022-12-10T10:28:54;738.42;;;686.33;;
31974;SDS011;18500;43.618;1.474;2022-12-10T10:33:52;691.97;;;644.28;;
31974;SDS011;18500;43.618;1.474;2022-12-10T10:36:35;623.20;;;581.22;;
31974;SDS011;18500;43.618;1.474;2022-12-10T10:39:10;656.95;;;611.10;;
31974;SDS011;18500;43.618;1.474;2022-12-10T10:41:51;770.58;;;715.45;;
31974;SDS011;18500;43.618;1.474;2022-12-10T10:44:20;439.58;;;409.05;;
31974;SDS011;18500;43.618;1.474;2022-12-10T10:46:48;613.58;;;569.10;;
31974;SDS011;18500;43.618;1.474;2022-12-10T10:51:52;500.02;;;466.35;;
31974;SDS011;18500;43.618;1.474;2022-12-10T10:59:56;599.22;;;556.97;;
31974;SDS011;18500;43.618;1.474;2022-12-10T11:02:34;572.50;;;532.63;;
31974;SDS011;18500;43.618;1.474;2022-12-10T11:05:15;769.22;;;715.13;;
31974;SDS011;18500;43.618;1.474;2022-12-10T11:07:49;736.63;;;686.38;;
31974;SDS011;18500;43.618;1.474;2022-12-10T11:10:25;820.22;;;763.17;;
31974;SDS011;18500;43.618;1.474;2022-12-10T11:13:03;738.97;;;688.60;;
31974;SDS011;18500;43.618;1.474;2022-12-10T11:15:38;663.45;;;619.03;;
31974;SDS011;18500;43.618;1.474;2022-12-10T11:23:36;579.75;;;538.88;;
31974;SDS011;18500;43.618;1.474;2022-12-10T11:31:39;537.88;;;502.58;;
31974;SDS011;18500;43.618;1.474;2022-12-10T11:36:58;718.55;;;665.47;;
31974;SDS011;18500;43.618;1.474;2022-12-10T11:45:51;617.85;;;577.38;;
31974;SDS011;18500;43.618;1.474;2022-12-10T11:48:55;577.92;;;540.30;;
31974;SDS011;18500;43.618;1.474;2022-12-10T11:51:43;717.55;;;667.83;;
31974;SDS011;18500;43.618;1.474;2022-12-10T12:11:10;723.28;;;675.38;;
31974;SDS011;18500;43.618;1.474;2022-12-10T12:13:57;715.25;;;667.28;;
31974;SDS011;18500;43.618;1.474;2022-12-10T12:19:09;676.20;;;631.13;;
31974;SDS011;18500;43.618;1.474;2022-12-10T12:21:39;694.97;;;645.38;;
31974;SDS011;18500;43.618;1.474;2022-12-10T12:26:56;644.08;;;601.97;;
31974;SDS011;18500;43.618;1.474;2022-12-10T12:29:27;434.35;;;406.63;;
31974;SDS011;18500;43.618;1.474;2022-12-10T12:32:17;633.35;;;590.58;;
31974;SDS011;18500;43.618;1.474;2022-12-10T12:37:22;647.92;;;604.38;;
31974;SDS011;18500;43.618;1.474;2022-12-10T12:42:41;683.75;;;634.63;;
31974;SDS011;18500;43.618;1.474;2022-12-10T12:45:20;538.28;;;503.63;;
31974;SDS011;18500;43.618;1.474;2022-12-10T12:48:01;488.17;;;458.40;;
31974;SDS011;18500;43.618;1.474;2022-12-10T12:50:54;705.90;;;656.00;;
31974;SDS011;18500;43.618;1.474;2022-12-10T12:53:39;598.25;;;558.38;;
31974;SDS011;18500;43.618;1.474;2022-12-10T13:02:01;745.38;;;693.05;;
31974;SDS011;18500;43.618;1.474;2022-12-10T13:04:39;877.20;;;808.40;;
31974;SDS011;18500;43.618;1.474;2022-12-10T13:09:44;870.63;;;800.78;;
31974;SDS011;18500;43.618;1.474;2022-12-10T13:13:05;732.75;;;680.35;;
31974;SDS011;18500;43.618;1.474;2022-12-10T13:15:32;777.08;;;716.53;;
31974;SDS011;18500;43.618;1.474;2022-12-10T13:25:42;721.70;;;668.45;;
31974;SDS011;18500;43.618;1.474;2022-12-10T13:28:22;749.33;;;691.80;;
31974;SDS011;18500;43.618;1.474;2022-12-10T13:31:08;489.70;;;458.10;;
31974;SDS011;18500;43.618;1.474;2022-12-10T13:36:22;471.65;;;440.35;;
31974;SDS011;18500;43.618;1.474;2022-12-10T13:41:33;562.45;;;526.75;;
31974;SDS011;18500;43.618;1.474;2022-12-10T13:50:05;766.53;;;713.28;;
31974;SDS011;18500;43.618;1.474;2022-12-10T13:52:57;731.05;;;678.72;;
31974;SDS011;18500;43.618;1.474;2022-12-10T14:06:38;770.03;;;714.55;;
31974;SDS011;18500;43.618;1.474;2022-12-10T14:11:37;662.10;;;614.10;;
31974;SDS011;18500;43.618;1.474;2022-12-10T14:14:06;617.85;;;571.95;;
31974;SDS011;18500;43.618;1.474;2022-12-10T14:16:38;784.97;;;725.63;;
31974;SDS011;18500;43.618;1.474;2022-12-10T14:19:06;689.90;;;638.13;;
31974;SDS011;18500;43.618;1.474;2022-12-10T14:21:37;696.65;;;642.72;;
31974;SDS011;18500;43.618;1.474;2022-12-10T14:24:05;640.03;;;597.40;;
31974;SDS011;18500;43.618;1.474;2022-12-10T14:26:32;600.08;;;559.28;;
31974;SDS011;18500;43.618;1.474;2022-12-10T14:29:01;410.88;;;384.38;;
31974;SDS011;18500;43.618;1.474;2022-12-10T14:31:33;428.52;;;400.83;;
31974;SDS011;18500;43.618;1.474;2022-12-10T14:34:05;489.23;;;456.33;;
31974;SDS011;18500;43.618;1.474;2022-12-10T14:36:34;483.77;;;451.15;;
31974;SDS011;18500;43.618;1.474;2022-12-10T14:39:10;753.55;;;696.78;;
31974;SDS011;18500;43.618;1.474;2022-12-10T14:41:41;494.80;;;458.77;;
31974;SDS011;18500;43.618;1.474;2022-12-10T14:44:08;681.35;;;632.65;;
31974;SDS011;18500;43.618;1.474;2022-12-10T14:46:37;596.85;;;555.15;;
31974;SDS011;18500;43.618;1.474;2022-12-10T14:49:03;666.60;;;621.85;;
31974;SDS011;18500;43.618;1.474;2022-12-10T14:51:33;594.00;;;552.60;;
31974;SDS011;18500;43.618;1.474;2022-12-10T14:54:02;590.10;;;547.53;;
31974;SDS011;18500;43.618;1.474;2022-12-10T14:56:29;585.33;;;543.47;;
31974;SDS011;18500;43.618;1.474;2022-12-10T14:59:09;720.22;;;663.67;;
31974;SDS011;18500;43.618;1.474;2022-12-10T15:01:42;659.58;;;606.63;;
31974;SDS011;18500;43.618;1.474;2022-12-10T15:04:15;608.72;;;564.50;;
31974;SDS011;18500;43.618;1.474;2022-12-10T15:06:42;766.50;;;701.05;;
31974;SDS011;18500;43.618;1.474;2022-12-10T15:09:13;564.05;;;524.38;;
31974;SDS011;18500;43.618;1.474;2022-12-10T15:11:57;542.58;;;506.40;;
31974;SDS011;18500;43.618;1.474;2022-12-10T15:14:24;743.05;;;687.53;;
31974;SDS011;18500;43.618;1.474;2022-12-10T15:16:52;676.72;;;627.30;;
31974;SDS011;18500;43.618;1.474;2022-12-10T15:19:24;648.08;;;602.60;;
31974;SDS011;18500;43.618;1.474;2022-12-10T15:24:41;551.80;;;511.10;;
31974;SDS011;18500;43.618;1.474;2022-12-10T15:27:18;615.22;;;566.97;;
31974;SDS011;18500;43.618;1.474;2022-12-10T15:29:46;516.47;;;477.00;;
31974;SDS011;18500;43.618;1.474;2022-12-10T15:32:13;576.58;;;533.42;;
31974;SDS011;18500;43.618;1.474;2022-12-10T15:35:00;411.13;;;382.42;;
31974;SDS011;18500;43.618;1.474;2022-12-10T15:37:33;425.70;;;397.75;;
31974;SDS011;18500;43.618;1.474;2022-12-10T15:40:04;488.70;;;453.15;;
31974;SDS011;18500;43.618;1.474;2022-12-10T15:45:11;518.00;;;479.88;;
31974;SDS011;18500;43.618;1.474;2022-12-10T15:47:48;577.95;;;536.00;;
31974;SDS011;18500;43.618;1.474;2022-12-10T15:50:14;611.88;;;570.85;;
31974;SDS011;18500;43.618;1.474;2022-12-10T15:52:40;764.13;;;708.55;;
31974;SDS011;18500;43.618;1.474;2022-12-10T15:55:06;758.67;;;703.53;;
31974;SDS011;18500;43.618;1.474;2022-12-10T15:57:36;750.47;;;696.38;;
31974;SDS011;18500;43.618;1.474;2022-12-10T16:00:13;538.63;;;504.10;;
31974;SDS011;18500;43.618;1.474;2022-12-10T16:03:02;421.27;;;393.30;;
31974;SDS011;18500;43.618;1.474;2022-12-10T16:05:33;670.85;;;623.38;;
31974;SDS011;18500;43.618;1.474;2022-12-10T16:08:06;338.98;;;317.70;;
31974;SDS011;18500;43.618;1.474;2022-12-10T16:10:37;460.27;;;428.58;;
31974;SDS011;18500;43.618;1.474;2022-12-10T16:13:09;548.25;;;511.05;;
31974;SDS011;18500;43.618;1.474;2022-12-10T16:16:01;471.70;;;439.48;;
31974;SDS011;18500;43.618;1.474;2022-12-10T16:18:29;482.60;;;450.60;;
31974;SDS011;18500;43.618;1.474;2022-12-10T16:20:55;473.35;;;441.23;;
31974;SDS011;18500;43.618;1.474;2022-12-10T16:23:21;581.45;;;542.55;;
31974;SDS011;18500;43.618;1.474;2022-12-10T16:25:46;590.33;;;551.10;;
31974;SDS011;18500;43.618;1.474;2022-12-10T16:28:13;607.78;;;564.75;;
31974;SDS011;18500;43.618;1.474;2022-12-10T16:30:51;660.42;;;610.85;;
31974;SDS011;18500;43.618;1.474;2022-12-10T16:33:18;610.33;;;568.75;;
31974;SDS011;18500;43.618;1.474;2022-12-10T16:35:46;452.92;;;421.02;;
31974;SDS011;18500;43.618;1.474;2022-12-10T16:38:13;443.95;;;413.25;;
31974;SDS011;18500;43.618;1.474;2022-12-10T16:40:39;462.15;;;429.23;;
31974;SDS011;18500;43.618;1.474;2022-12-10T16:43:17;642.03;;;594.67;;
31974;SDS011;18500;43.618;1.474;2022-12-10T16:45:44;539.83;;;500.90;;
31974;SDS011;18500;43.618;1.474;2022-12-10T16:48:10;654.70;;;606.88;;
31974;SDS011;18500;43.618;1.474;2022-12-10T16:50:36;849.75;;;780.13;;
31974;SDS011;18500;43.618;1.474;2022-12-10T16:53:03;841.20;;;770.88;;
31974;SDS011;18500;43.618;1.474;2022-12-10T16:55:42;808.53;;;746.08;;
31974;SDS011;18500;43.618;1.474;2022-12-10T16:58:09;857.38;;;789.40;;
31974;SDS011;18500;43.618;1.474;2022-12-10T17:00:35;900.40;;;824.70;;
31974;SDS011;18500;43.618;1.474;2022-12-10T17:03:02;920.28;;;842.10;;
31974;SDS011;18500;43.618;1.474;2022-12-10T17:05:33;833.22;;;764.75;;
31974;SDS011;18500;43.618;1.474;2022-12-10T17:08:01;799.60;;;733.15;;
31974;SDS011;18500;43.618;1.474;2022-12-10T17:10:27;806.72;;;742.35;;
31974;SDS011;18500;43.618;1.474;2022-12-10T17:13:12;563.75;;;521.00;;
31974;SDS011;18500;43.618;1.474;2022-12-10T17:15:40;699.08;;;642.95;;
31974;SDS011;18500;43.618;1.474;2022-12-10T17:18:08;585.35;;;541.00;;
31974;SDS011;18500;43.618;1.474;2022-12-10T17:20:38;512.92;;;477.27;;
31974;SDS011;18500;43.618;1.474;2022-12-10T17:23:04;424.20;;;396.95;;
31974;SDS011;18500;43.618;1.474;2022-12-10T17:25:29;625.05;;;579.13;;
31974;SDS011;18500;43.618;1.474;2022-12-10T17:27:56;423.75;;;395.40;;
31974;SDS011;18500;43.618;1.474;2022-12-10T17:30:22;326.55;;;305.52;;
31974;SDS011;18500;43.618;1.474;2022-12-10T17:32:48;290.55;;;271.63;;
31974;SDS011;18500;43.618;1.474;2022-12-10T17:35:14;308.10;;;287.50;;
31974;SDS011;18500;43.618;1.474;2022-12-10T17:37:39;406.70;;;378.48;;
31974;SDS011;18500;43.618;1.474;2022-12-10T17:40:10;365.30;;;338.55;;
31974;SDS011;18500;43.618;1.474;2022-12-10T17:42:39;412.65;;;380.75;;
31974;SDS011;18500;43.618;1.474;2022-12-10T17:45:04;298.98;;;276.65;;
31974;SDS011;18500;43.618;1.474;2022-12-10T17:47:31;380.55;;;352.42;;
31974;SDS011;18500;43.618;1.474;2022-12-10T17:49:57;341.83;;;318.25;;
31974;SDS011;18500;43.618;1.474;2022-12-10T17:52:23;315.77;;;294.65;;
31974;SDS011;18500;43.618;1.474;2022-12-10T17:54:49;339.95;;;315.05;;
31974;SDS011;18500;43.618;1.474;2022-12-10T17:57:18;342.77;;;319.00;;
31974;SDS011;18500;43.618;1.474;2022-12-10T17:59:46;361.35;;;336.08;;
31974;SDS011;18500;43.618;1.474;2022-12-10T18:02:12;441.67;;;411.98;;
31974;SDS011;18500;43.618;1.474;2022-12-10T18:04:38;359.58;;;333.20;;
31974;SDS011;18500;43.618;1.474;2022-12-10T18:07:14;408.50;;;379.35;;
31974;SDS011;18500;43.618;1.474;2022-12-10T18:09:42;472.92;;;439.83;;
31974;SDS011;18500;43.618;1.474;2022-12-10T18:12:08;667.90;;;613.78;;
31974;SDS011;18500;43.618;1.474;2022-12-10T18:14:35;485.20;;;451.63;;
31974;SDS011;18500;43.618;1.474;2022-12-10T18:17:01;352.98;;;330.40;;
31974;SDS011;18500;43.618;1.474;2022-12-10T18:19:28;408.17;;;381.35;;
31974;SDS011;18500;43.618;1.474;2022-12-10T18:21:53;461.25;;;427.65;;
31974;SDS011;18500;43.618;1.474;2022-12-10T18:24:19;412.08;;;385.58;;
31974;SDS011;18500;43.618;1.474;2022-12-10T18:26:45;512.47;;;478.08;;
31974;SDS011;18500;43.618;1.474;2022-12-10T18:29:11;520.65;;;484.20;;
31974;SDS011;18500;43.618;1.474;2022-12-10T18:31:41;618.00;;;573.08;;
31974;SDS011;18500;43.618;1.474;2022-12-10T18:34:09;637.15;;;588.85;;
31974;SDS011;18500;43.618;1.474;2022-12-10T18:36:37;492.45;;;458.52;;
31974;SDS011;18500;43.618;1.474;2022-12-10T18:39:06;285.67;;;267.17;;
31974;SDS011;18500;43.618;1.474;2022-12-10T18:41:38;407.38;;;380.95;;
31974;SDS011;18500;43.618;1.474;2022-12-10T18:44:04;542.72;;;505.85;;
31974;SDS011;18500;43.618;1.474;2022-12-10T18:46:29;336.10;;;314.25;;
31974;SDS011;18500;43.618;1.474;2022-12-10T18:49:00;354.65;;;332.30;;
31974;SDS011;18500;43.618;1.474;2022-12-10T18:51:26;274.67;;;256.88;;
31974;SDS011;18500;43.618;1.474;2022-12-10T18:53:52;306.15;;;286.52;;
31974;SDS011;18500;43.618;1.474;2022-12-10T18:56:19;373.20;;;350.48;;
31974;SDS011;18500;43.618;1.474;2022-12-10T19:01:16;378.58;;;355.50;;
31974;SDS011;18500;43.618;1.474;2022-12-10T19:03:45;321.85;;;300.85;;
31974;SDS011;18500;43.618;1.474;2022-12-10T19:06:12;501.48;;;466.92;;
31974;SDS011;18500;43.618;1.474;2022-12-10T19:08:40;531.45;;;491.80;;
31974;SDS011;18500;43.618;1.474;2022-12-10T19:11:06;681.70;;;629.80;;
31974;SDS011;18500;43.618;1.474;2022-12-10T19:13:32;651.88;;;604.03;;
31974;SDS011;18500;43.618;1.474;2022-12-10T19:15:58;679.95;;;627.42;;
31974;SDS011;18500;43.618;1.474;2022-12-10T19:18:25;614.83;;;567.60;;
31974;SDS011;18500;43.618;1.474;2022-12-10T19:20:51;643.33;;;596.20;;
31974;SDS011;18500;43.618;1.474;2022-12-10T19:23:16;645.00;;;595.38;;
31974;SDS011;18500;43.618;1.474;2022-12-10T19:25:42;720.85;;;662.88;;
31974;SDS011;18500;43.618;1.474;2022-12-10T19:28:09;696.92;;;642.83;;
31974;SDS011;18500;43.618;1.474;2022-12-10T19:30:34;623.90;;;579.80;;
31974;SDS011;18500;43.618;1.474;2022-12-10T19:33:00;826.15;;;764.75;;
31974;SDS011;18500;43.618;1.474;2022-12-10T19:35:26;612.50;;;568.85;;
31974;SDS011;18500;43.618;1.474;2022-12-10T19:37:52;676.25;;;624.17;;
31974;SDS011;18500;43.618;1.474;2022-12-10T19:40:26;638.75;;;591.10;;
31974;SDS011;18500;43.618;1.474;2022-12-10T19:42:55;782.72;;;722.80;;
31974;SDS011;18500;43.618;1.474;2022-12-10T19:45:21;815.83;;;753.38;;
31974;SDS011;18500;43.618;1.474;2022-12-10T19:47:48;895.17;;;823.20;;
31974;SDS011;18500;43.618;1.474;2022-12-10T19:50:19;743.70;;;685.97;;
31974;SDS011;18500;43.618;1.474;2022-12-10T19:52:47;806.30;;;745.25;;
31974;SDS011;18500;43.618;1.474;2022-12-10T19:55:14;870.50;;;805.00;;
31974;SDS011;18500;43.618;1.474;2022-12-10T19:57:40;912.95;;;842.88;;
31974;SDS011;18500;43.618;1.474;2022-12-10T20:00:10;881.05;;;815.15;;
31974;SDS011;18500;43.618;1.474;2022-12-10T20:02:40;842.60;;;780.63;;
31974;SDS011;18500;43.618;1.474;2022-12-10T20:05:06;851.45;;;787.83;;
31974;SDS011;18500;43.618;1.474;2022-12-10T20:07:32;857.10;;;792.95;;
31974;SDS011;18500;43.618;1.474;2022-12-10T20:09:58;851.83;;;787.08;;
31974;SDS011;18500;43.618;1.474;2022-12-10T20:12:24;789.40;;;728.58;;
31974;SDS011;18500;43.618;1.474;2022-12-10T20:14:49;863.20;;;797.72;;
31974;SDS011;18500;43.618;1.474;2022-12-10T20:17:15;869.08;;;802.55;;
31974;SDS011;18500;43.618;1.474;2022-12-10T20:19:45;866.35;;;802.60;;
31974;SDS011;18500;43.618;1.474;2022-12-10T20:22:11;825.35;;;762.05;;
31974;SDS011;18500;43.618;1.474;2022-12-10T20:24:37;726.22;;;670.15;;
31974;SDS011;18500;43.618;1.474;2022-12-10T20:27:03;827.20;;;760.63;;
31974;SDS011;18500;43.618;1.474;2022-12-10T20:29:29;725.47;;;672.53;;
31974;SDS011;18500;43.618;1.474;2022-12-10T20:31:55;732.38;;;676.72;;
31974;SDS011;18500;43.618;1.474;2022-12-10T20:34:22;733.80;;;679.22;;
31974;SDS011;18500;43.618;1.474;2022-12-10T20:36:49;764.60;;;708.47;;
31974;SDS011;18500;43.618;1.474;2022-12-10T20:39:17;779.92;;;722.58;;
31974;SDS011;18500;43.618;1.474;2022-12-10T20:41:45;791.53;;;731.35;;
31974;SDS011;18500;43.618;1.474;2022-12-10T20:44:12;861.95;;;796.05;;
31974;SDS011;18500;43.618;1.474;2022-12-10T20:46:38;843.15;;;777.30;;
31974;SDS011;18500;43.618;1.474;2022-12-10T20:49:04;819.40;;;756.15;;
31974;SDS011;18500;43.618;1.474;2022-12-10T20:51:30;812.58;;;750.60;;
31974;SDS011;18500;43.618;1.474;2022-12-10T20:53:56;776.50;;;718.20;;
31974;SDS011;18500;43.618;1.474;2022-12-10T20:56:23;741.47;;;688.20;;
31974;SDS011;18500;43.618;1.474;2022-12-10T20:58:50;758.08;;;703.13;;
31974;SDS011;18500;43.618;1.474;2022-12-10T21:01:16;831.20;;;769.10;;
31974;SDS011;18500;43.618;1.474;2022-12-10T21:03:43;806.70;;;744.97;;
31974;SDS011;18500;43.618;1.474;2022-12-10T21:06:09;723.72;;;671.00;;
31974;SDS011;18500;43.618;1.474;2022-12-10T21:08:38;695.55;;;643.92;;
31974;SDS011;18500;43.618;1.474;2022-12-10T21:11:04;746.90;;;689.75;;
31974;SDS011;18500;43.618;1.474;2022-12-10T21:13:30;799.13;;;738.97;;
31974;SDS011;18500;43.618;1.474;2022-12-10T21:15:57;811.53;;;750.40;;
31974;SDS011;18500;43.618;1.474;2022-12-10T21:18:24;846.92;;;778.42;;
31974;SDS011;18500;43.618;1.474;2022-12-10T21:20:51;816.05;;;747.95;;
31974;SDS011;18500;43.618;1.474;2022-12-10T21:23:18;814.65;;;749.60;;
31974;SDS011;18500;43.618;1.474;2022-12-10T21:25:46;809.55;;;747.00;;
31974;SDS011;18500;43.618;1.474;2022-12-10T21:28:12;796.83;;;735.35;;
31974;SDS011;18500;43.618;1.474;2022-12-10T21:30:38;774.80;;;714.70;;
31974;SDS011;18500;43.618;1.474;2022-12-10T21:33:04;812.75;;;750.85;;
31974;SDS011;18500;43.618;1.474;2022-12-10T21:35:30;778.78;;;719.78;;
31974;SDS011;18500;43.618;1.474;2022-12-10T21:37:56;781.70;;;722.67;;
31974;SDS011;18500;43.618;1.474;2022-12-10T21:40:23;796.35;;;737.33;;
31974;SDS011;18500;43.618;1.474;2022-12-10T21:42:48;791.20;;;730.60;;
31974;SDS011;18500;43.618;1.474;2022-12-10T21:45:32;763.15;;;705.72;;
31974;SDS011;18500;43.618;1.474;2022-12-10T21:47:59;782.38;;;723.10;;
31974;SDS011;18500;43.618;1.474;2022-12-10T21:50:25;765.60;;;707.35;;
31974;SDS011;18500;43.618;1.474;2022-12-10T21:52:54;762.17;;;701.63;;
31974;SDS011;18500;43.618;1.474;2022-12-10T21:55:20;756.75;;;698.60;;
31974;SDS011;18500;43.618;1.474;2022-12-10T21:57:46;768.15;;;710.90;;
31974;SDS011;18500;43.618;1.474;2022-12-10T22:00:13;776.65;;;718.40;;
31974;SDS011;18500;43.618;1.474;2022-12-10T22:02:40;755.38;;;699.45;;
31974;SDS011;18500;43.618;1.474;2022-12-10T22:05:07;777.78;;;718.65;;
31974;SDS011;18500;43.618;1.474;2022-12-10T22:07:34;691.08;;;640.70;;
31974;SDS011;18500;43.618;1.474;2022-12-10T22:10:01;676.28;;;627.83;;
31974;SDS011;18500;43.618;1.474;2022-12-10T22:12:29;725.72;;;671.85;;
31974;SDS011;18500;43.618;1.474;2022-12-10T22:14:54;784.45;;;725.20;;
31974;SDS011;18500;43.618;1.474;2022-12-10T22:17:20;749.22;;;693.15;;
31974;SDS011;18500;43.618;1.474;2022-12-10T22:19:46;645.63;;;598.05;;
31974;SDS011;18500;43.618;1.474;2022-12-10T22:22:11;562.53;;;521.75;;
31974;SDS011;18500;43.618;1.474;2022-12-10T22:24:37;576.53;;;534.55;;
31974;SDS011;18500;43.618;1.474;2022-12-10T22:27:04;643.70;;;596.28;;
31974;SDS011;18500;43.618;1.474;2022-12-10T22:29:29;691.53;;;639.95;;
31974;SDS011;18500;43.618;1.474;2022-12-10T22:31:55;789.70;;;729.50;;
31974;SDS011;18500;43.618;1.474;2022-12-10T22:34:20;742.17;;;686.20;;
31974;SDS011;18500;43.618;1.474;2022-12-10T22:36:47;747.90;;;691.15;;
31974;SDS011;18500;43.618;1.474;2022-12-10T22:39:13;761.50;;;705.13;;
31974;SDS011;18500;43.618;1.474;2022-12-10T22:41:39;743.35;;;687.58;;
31974;SDS011;18500;43.618;1.474;2022-12-10T22:44:05;789.05;;;728.15;;
31974;SDS011;18500;43.618;1.474;2022-12-10T22:46:31;775.88;;;717.30;;
31974;SDS011;18500;43.618;1.474;2022-12-10T22:48:57;678.25;;;627.72;;
31974;SDS011;18500;43.618;1.474;2022-12-10T22:51:23;654.42;;;607.35;;
31974;SDS011;18500;43.618;1.474;2022-12-10T22:53:48;704.13;;;652.88;;
31974;SDS011;18500;43.618;1.474;2022-12-10T22:56:14;721.95;;;668.97;;
31974;SDS011;18500;43.618;1.474;2022-12-10T22:58:40;691.22;;;640.85;;
31974;SDS011;18500;43.618;1.474;2022-12-10T23:01:12;677.65;;;627.95;;
31974;SDS011;18500;43.618;1.474;2022-12-10T23:03:39;686.53;;;635.50;;
31974;SDS011;18500;43.618;1.474;2022-12-10T23:06:05;810.25;;;746.78;;
31974;SDS011;18500;43.618;1.474;2022-12-10T23:08:31;733.00;;;676.70;;
31974;SDS011;18500;43.618;1.474;2022-12-10T23:10:58;686.28;;;635.25;;
31974;SDS011;18500;43.618;1.474;2022-12-10T23:13:24;649.83;;;602.17;;
31974;SDS011;18500;43.618;1.474;2022-12-10T23:15:51;677.78;;;627.70;;
31974;SDS011;18500;43.618;1.474;2022-12-10T23:18:18;712.97;;;660.72;;
31974;SDS011;18500;43.618;1.474;2022-12-10T23:20:44;700.90;;;648.70;;
31974;SDS011;18500;43.618;1.474;2022-12-10T23:23:10;653.08;;;605.72;;
31974;SDS011;18500;43.618;1.474;2022-12-10T23:25:38;689.85;;;639.95;;
31974;SDS011;18500;43.618;1.474;2022-12-10T23:28:04;748.55;;;691.30;;
31974;SDS011;18500;43.618;1.474;2022-12-10T23:30:30;739.35;;;683.35;;
31974;SDS011;18500;43.618;1.474;2022-12-10T23:32:57;703.10;;;651.33;;
31974;SDS011;18500;43.618;1.474;2022-12-10T23:35:23;717.70;;;663.47;;
31974;SDS011;18500;43.618;1.474;2022-12-10T23:37:48;733.25;;;676.47;;
31974;SDS011;18500;43.618;1.474;2022-12-10T23:40:14;688.63;;;634.83;;
31974;SDS011;18500;43.618;1.474;2022-12-10T23:42:40;717.72;;;664.03;;